sensor_id;sensor_type;location;lat;lon;timestamp;P1;durP1;ratioP1;P2;durP2;ratioP2
11000;SDS011;5553;48.506;8.870;2022-11-21T00:01:33;1.10;;;0.43;;
11000;SDS011;5553;48.506;8.870;2022-11-21T00:04:01;0.40;;;0.30;;
11000;SDS011;5553;48.506;8.870;2022-11-21T00:06:32;0.57;;;0.40;;
11000;SDS011;5553;48.506;8.870;2022-11-21T00:09:00;0.70;;;0.37;;
11000;SDS011;5553;48.506;8.870;2022-11-21T00:11:29;0.57;;;0.40;;
11000;SDS011;5553;48.506;8.870;2022-11-21T00:13:57;1.27;;;0.30;;
11000;SDS011;5553;48.506;8.870;2022-11-21T00:16:25;0.87;;;0.60;;
11000;SDS011;5553;48.506;8.870;2022-11-21T00:18:54;1.63;;;0.60;;
11000;SDS011;5553;48.506;8.870;2022-11-21T00:21:22;1.00;;;0.57;;
11000;SDS011;5553;48.506;8.870;2022-11-21T00:23:53;1.23;;;0.47;;
11000;SDS011;5553;48.506;8.870;2022-11-21T00:26:21;1.23;;;0.47;;
11000;SDS011;5553;48.506;8.870;2022-11-21T00:28:50;1.73;;;0.53;;
11000;SDS011;5553;48.506;8.870;2022-11-21T00:31:18;0.60;;;0.60;;
11000;SDS011;5553;48.506;8.870;2022-11-21T00:33:48;1.07;;;0.60;;
11000;SDS011;5553;48.506;8.870;2022-11-21T00:36:16;0.40;;;0.33;;
11000;SDS011;5553;48.506;8.870;2022-11-21T00:38:44;4.20;;;0.90;;
11000;SDS011;5553;48.506;8.870;2022-11-21T00:41:15;2.17;;;0.73;;
11000;SDS011;5553;48.506;8.870;2022-11-21T00:43:44;1.33;;;0.77;;
11000;SDS011;5553;48.506;8.870;2022-11-21T00:46:12;4.93;;;0.70;;
11000;SDS011;5553;48.506;8.870;2022-11-21T00:48:40;0.87;;;0.60;;
11000;SDS011;5553;48.506;8.870;2022-11-21T00:51:09;1.73;;;0.87;;
11000;SDS011;5553;48.506;8.870;2022-11-21T00:53:37;2.00;;;0.90;;
11000;SDS011;5553;48.506;8.870;2022-11-21T00:56:05;1.70;;;0.53;;
11000;SDS011;5553;48.506;8.870;2022-11-21T00:58:36;1.27;;;0.80;;
11000;SDS011;5553;48.506;8.870;2022-11-21T01:01:05;1.53;;;1.03;;
11000;SDS011;5553;48.506;8.870;2022-11-21T01:03:35;1.27;;;0.70;;
11000;SDS011;5553;48.506;8.870;2022-11-21T01:06:05;0.73;;;0.70;;
11000;SDS011;5553;48.506;8.870;2022-11-21T01:08:36;5.70;;;1.10;;
11000;SDS011;5553;48.506;8.870;2022-11-21T01:11:06;4.80;;;0.97;;
11000;SDS011;5553;48.506;8.870;2022-11-21T01:13:39;3.47;;;0.87;;
11000;SDS011;5553;48.506;8.870;2022-11-21T01:16:08;2.23;;;1.30;;
11000;SDS011;5553;48.506;8.870;2022-11-21T01:18:37;1.13;;;0.70;;
11000;SDS011;5553;48.506;8.870;2022-11-21T01:21:06;1.50;;;0.77;;
11000;SDS011;5553;48.506;8.870;2022-11-21T01:23:38;1.67;;;1.53;;
11000;SDS011;5553;48.506;8.870;2022-11-21T01:26:08;1.70;;;1.07;;
11000;SDS011;5553;48.506;8.870;2022-11-21T01:28:41;3.73;;;1.20;;
11000;SDS011;5553;48.506;8.870;2022-11-21T01:31:11;3.33;;;0.80;;
11000;SDS011;5553;48.506;8.870;2022-11-21T01:33:41;2.10;;;0.60;;
11000;SDS011;5553;48.506;8.870;2022-11-21T01:36:10;1.40;;;0.60;;
11000;SDS011;5553;48.506;8.870;2022-11-21T01:38:41;1.50;;;0.60;;
11000;SDS011;5553;48.506;8.870;2022-11-21T01:41:12;2.30;;;0.73;;
11000;SDS011;5553;48.506;8.870;2022-11-21T01:43:44;3.23;;;1.67;;
11000;SDS011;5553;48.506;8.870;2022-11-21T01:46:13;1.93;;;0.50;;
11000;SDS011;5553;48.506;8.870;2022-11-21T01:48:45;5.40;;;1.00;;
11000;SDS011;5553;48.506;8.870;2022-11-21T01:51:22;2.40;;;0.70;;
11000;SDS011;5553;48.506;8.870;2022-11-21T01:53:56;2.53;;;1.03;;
11000;SDS011;5553;48.506;8.870;2022-11-21T01:56:29;1.50;;;0.77;;
11000;SDS011;5553;48.506;8.870;2022-11-21T01:59:03;0.73;;;0.70;;
11000;SDS011;5553;48.506;8.870;2022-11-21T02:01:34;2.67;;;0.83;;
11000;SDS011;5553;48.506;8.870;2022-11-21T02:04:04;4.27;;;1.00;;
11000;SDS011;5553;48.506;8.870;2022-11-21T02:06:34;2.73;;;1.00;;
11000;SDS011;5553;48.506;8.870;2022-11-21T02:09:04;6.00;;;1.10;;
11000;SDS011;5553;48.506;8.870;2022-11-21T02:11:34;1.77;;;0.97;;
11000;SDS011;5553;48.506;8.870;2022-11-21T02:14:08;2.00;;;0.70;;
11000;SDS011;5553;48.506;8.870;2022-11-21T02:16:38;1.10;;;0.50;;
11000;SDS011;5553;48.506;8.870;2022-11-21T02:19:07;6.50;;;1.27;;
11000;SDS011;5553;48.506;8.870;2022-11-21T02:21:41;3.43;;;0.67;;
11000;SDS011;5553;48.506;8.870;2022-11-21T02:24:19;2.20;;;0.83;;
11000;SDS011;5553;48.506;8.870;2022-11-21T02:26:54;4.00;;;1.13;;
11000;SDS011;5553;48.506;8.870;2022-11-21T02:29:23;2.47;;;0.67;;
11000;SDS011;5553;48.506;8.870;2022-11-21T02:31:52;2.60;;;1.07;;
11000;SDS011;5553;48.506;8.870;2022-11-21T02:34:21;4.33;;;1.00;;
11000;SDS011;5553;48.506;8.870;2022-11-21T02:36:49;5.93;;;1.23;;
11000;SDS011;5553;48.506;8.870;2022-11-21T02:39:18;2.40;;;0.60;;
11000;SDS011;5553;48.506;8.870;2022-11-21T02:41:53;2.93;;;0.80;;
11000;SDS011;5553;48.506;8.870;2022-11-21T02:44:32;1.30;;;0.80;;
11000;SDS011;5553;48.506;8.870;2022-11-21T02:47:06;2.10;;;0.90;;
11000;SDS011;5553;48.506;8.870;2022-11-21T02:49:37;3.63;;;0.80;;
11000;SDS011;5553;48.506;8.870;2022-11-21T02:52:09;1.30;;;0.67;;
11000;SDS011;5553;48.506;8.870;2022-11-21T02:54:37;0.97;;;0.90;;
11000;SDS011;5553;48.506;8.870;2022-11-21T02:57:08;1.40;;;0.73;;
11000;SDS011;5553;48.506;8.870;2022-11-21T02:59:36;1.73;;;0.70;;
11000;SDS011;5553;48.506;8.870;2022-11-21T03:02:05;1.53;;;0.93;;
11000;SDS011;5553;48.506;8.870;2022-11-21T03:04:33;1.90;;;0.70;;
11000;SDS011;5553;48.506;8.870;2022-11-21T03:07:01;2.87;;;0.70;;
11000;SDS011;5553;48.506;8.870;2022-11-21T03:09:30;3.03;;;0.63;;
11000;SDS011;5553;48.506;8.870;2022-11-21T03:11:58;1.23;;;0.83;;
11000;SDS011;5553;48.506;8.870;2022-11-21T03:14:29;0.80;;;0.70;;
11000;SDS011;5553;48.506;8.870;2022-11-21T03:16:57;3.40;;;1.07;;
11000;SDS011;5553;48.506;8.870;2022-11-21T03:19:26;2.73;;;0.67;;
11000;SDS011;5553;48.506;8.870;2022-11-21T03:21:54;0.40;;;0.30;;
11000;SDS011;5553;48.506;8.870;2022-11-21T03:24:23;1.60;;;0.30;;
11000;SDS011;5553;48.506;8.870;2022-11-21T03:26:51;0.43;;;0.40;;
11000;SDS011;5553;48.506;8.870;2022-11-21T03:29:20;3.17;;;0.50;;
11000;SDS011;5553;48.506;8.870;2022-11-21T03:31:50;1.50;;;0.57;;
11000;SDS011;5553;48.506;8.870;2022-11-21T03:34:19;0.73;;;0.20;;
11000;SDS011;5553;48.506;8.870;2022-11-21T03:36:49;2.33;;;0.30;;
11000;SDS011;5553;48.506;8.870;2022-11-21T03:39:17;1.73;;;0.30;;
11000;SDS011;5553;48.506;8.870;2022-11-21T03:41:45;1.33;;;0.30;;
11000;SDS011;5553;48.506;8.870;2022-11-21T03:44:14;0.30;;;0.27;;
11000;SDS011;5553;48.506;8.870;2022-11-21T03:46:44;0.50;;;0.37;;
11000;SDS011;5553;48.506;8.870;2022-11-21T03:49:16;1.70;;;0.30;;
11000;SDS011;5553;48.506;8.870;2022-11-21T03:51:44;0.67;;;0.30;;
11000;SDS011;5553;48.506;8.870;2022-11-21T03:54:12;0.50;;;0.30;;
11000;SDS011;5553;48.506;8.870;2022-11-21T03:56:40;1.23;;;0.50;;
11000;SDS011;5553;48.506;8.870;2022-11-21T03:59:09;1.17;;;0.27;;
11000;SDS011;5553;48.506;8.870;2022-11-21T04:01:37;0.40;;;0.30;;
11000;SDS011;5553;48.506;8.870;2022-11-21T04:04:05;0.70;;;0.20;;
11000;SDS011;5553;48.506;8.870;2022-11-21T04:06:36;0.70;;;0.30;;
11000;SDS011;5553;48.506;8.870;2022-11-21T04:09:05;0.97;;;0.30;;
11000;SDS011;5553;48.506;8.870;2022-11-21T04:11:33;0.43;;;0.30;;
11000;SDS011;5553;48.506;8.870;2022-11-21T04:14:01;0.60;;;0.20;;
11000;SDS011;5553;48.506;8.870;2022-11-21T04:16:30;0.40;;;0.30;;
11000;SDS011;5553;48.506;8.870;2022-11-21T04:18:58;0.63;;;0.20;;
11000;SDS011;5553;48.506;8.870;2022-11-21T04:21:26;0.30;;;0.20;;
11000;SDS011;5553;48.506;8.870;2022-11-21T04:23:57;0.50;;;0.23;;
11000;SDS011;5553;48.506;8.870;2022-11-21T04:26:26;0.30;;;0.20;;
11000;SDS011;5553;48.506;8.870;2022-11-21T04:28:54;0.60;;;0.37;;
11000;SDS011;5553;48.506;8.870;2022-11-21T04:31:24;1.37;;;0.40;;
11000;SDS011;5553;48.506;8.870;2022-11-21T04:33:52;1.47;;;0.47;;
11000;SDS011;5553;48.506;8.870;2022-11-21T04:36:21;0.50;;;0.30;;
11000;SDS011;5553;48.506;8.870;2022-11-21T04:38:49;0.30;;;0.30;;
11000;SDS011;5553;48.506;8.870;2022-11-21T04:41:20;0.30;;;0.20;;
11000;SDS011;5553;48.506;8.870;2022-11-21T04:43:48;0.50;;;0.30;;
11000;SDS011;5553;48.506;8.870;2022-11-21T04:46:16;1.77;;;0.30;;
11000;SDS011;5553;48.506;8.870;2022-11-21T04:48:45;2.90;;;0.30;;
11000;SDS011;5553;48.506;8.870;2022-11-21T04:51:14;1.07;;;0.30;;
11000;SDS011;5553;48.506;8.870;2022-11-21T04:53:42;0.30;;;0.20;;
11000;SDS011;5553;48.506;8.870;2022-11-21T04:56:10;0.30;;;0.20;;
11000;SDS011;5553;48.506;8.870;2022-11-21T04:58:43;0.67;;;0.30;;
11000;SDS011;5553;48.506;8.870;2022-11-21T05:01:11;0.50;;;0.20;;
11000;SDS011;5553;48.506;8.870;2022-11-21T05:03:39;0.60;;;0.20;;
11000;SDS011;5553;48.506;8.870;2022-11-21T05:06:08;0.50;;;0.20;;
11000;SDS011;5553;48.506;8.870;2022-11-21T05:08:36;1.23;;;0.20;;
11000;SDS011;5553;48.506;8.870;2022-11-21T05:11:04;0.50;;;0.50;;
11000;SDS011;5553;48.506;8.870;2022-11-21T05:13:48;0.30;;;0.20;;
11000;SDS011;5553;48.506;8.870;2022-11-21T05:16:19;0.40;;;0.20;;
11000;SDS011;5553;48.506;8.870;2022-11-21T05:18:47;0.70;;;0.40;;
11000;SDS011;5553;48.506;8.870;2022-11-21T05:21:15;1.07;;;0.20;;
11000;SDS011;5553;48.506;8.870;2022-11-21T05:23:44;0.70;;;0.30;;
11000;SDS011;5553;48.506;8.870;2022-11-21T05:26:12;0.37;;;0.30;;
11000;SDS011;5553;48.506;8.870;2022-11-21T05:28:40;0.70;;;0.30;;
11000;SDS011;5553;48.506;8.870;2022-11-21T05:31:12;0.40;;;0.40;;
11000;SDS011;5553;48.506;8.870;2022-11-21T05:33:40;0.40;;;0.20;;
11000;SDS011;5553;48.506;8.870;2022-11-21T05:36:09;0.30;;;0.20;;
11000;SDS011;5553;48.506;8.870;2022-11-21T05:38:37;0.30;;;0.20;;
11000;SDS011;5553;48.506;8.870;2022-11-21T05:41:05;0.30;;;0.20;;
11000;SDS011;5553;48.506;8.870;2022-11-21T05:43:34;0.30;;;0.20;;
11000;SDS011;5553;48.506;8.870;2022-11-21T05:46:14;2.30;;;0.40;;
11000;SDS011;5553;48.506;8.870;2022-11-21T05:48:44;0.57;;;0.40;;
11000;SDS011;5553;48.506;8.870;2022-11-21T05:51:13;1.37;;;0.30;;
11000;SDS011;5553;48.506;8.870;2022-11-21T05:53:42;0.50;;;0.40;;
11000;SDS011;5553;48.506;8.870;2022-11-21T05:56:11;0.40;;;0.30;;
11000;SDS011;5553;48.506;8.870;2022-11-21T07:26:28;1.77;;;1.43;;
11000;SDS011;5553;48.506;8.870;2022-11-21T10:03:35;4.57;;;1.40;;
11000;SDS011;5553;48.506;8.870;2022-11-21T10:06:13;4.97;;;1.20;;
11000;SDS011;5553;48.506;8.870;2022-11-21T10:08:49;2.90;;;1.57;;
11000;SDS011;5553;48.506;8.870;2022-11-21T10:11:28;3.07;;;0.80;;
11000;SDS011;5553;48.506;8.870;2022-11-21T10:14:30;6.10;;;1.33;;
11000;SDS011;5553;48.506;8.870;2022-11-21T10:17:12;2.70;;;0.97;;
11000;SDS011;5553;48.506;8.870;2022-11-21T10:19:52;5.10;;;1.50;;
11000;SDS011;5553;48.506;8.870;2022-11-21T10:22:36;2.40;;;1.10;;
11000;SDS011;5553;48.506;8.870;2022-11-21T10:25:20;3.43;;;1.40;;
11000;SDS011;5553;48.506;8.870;2022-11-21T10:27:52;3.87;;;0.70;;
11000;SDS011;5553;48.506;8.870;2022-11-21T10:30:23;2.40;;;1.07;;
11000;SDS011;5553;48.506;8.870;2022-11-21T10:32:54;2.20;;;1.17;;
11000;SDS011;5553;48.506;8.870;2022-11-21T10:35:28;3.30;;;1.00;;
11000;SDS011;5553;48.506;8.870;2022-11-21T10:38:02;5.90;;;1.20;;
11000;SDS011;5553;48.506;8.870;2022-11-21T10:40:46;2.50;;;1.23;;
11000;SDS011;5553;48.506;8.870;2022-11-21T10:43:22;6.80;;;1.47;;
11000;SDS011;5553;48.506;8.870;2022-11-21T10:46:09;6.30;;;1.67;;
11000;SDS011;5553;48.506;8.870;2022-11-21T10:48:37;3.23;;;1.20;;
11000;SDS011;5553;48.506;8.870;2022-11-21T10:51:16;2.97;;;1.33;;
11000;SDS011;5553;48.506;8.870;2022-11-21T10:54:04;3.07;;;0.80;;
11000;SDS011;5553;48.506;8.870;2022-11-21T10:56:46;4.40;;;1.10;;
11000;SDS011;5553;48.506;8.870;2022-11-21T10:59:18;2.73;;;1.10;;
11000;SDS011;5553;48.506;8.870;2022-11-21T11:01:54;6.50;;;1.57;;
11000;SDS011;5553;48.506;8.870;2022-11-21T11:04:24;3.37;;;1.17;;
11000;SDS011;5553;48.506;8.870;2022-11-21T11:06:56;2.53;;;1.00;;
11000;SDS011;5553;48.506;8.870;2022-11-21T11:09:29;5.43;;;1.43;;
11000;SDS011;5553;48.506;8.870;2022-11-21T11:15:20;4.47;;;1.30;;
11000;SDS011;5553;48.506;8.870;2022-11-21T11:17:54;1.70;;;0.73;;
11000;SDS011;5553;48.506;8.870;2022-11-21T11:20:28;3.23;;;0.97;;
11000;SDS011;5553;48.506;8.870;2022-11-21T11:23:12;2.80;;;1.10;;
11000;SDS011;5553;48.506;8.870;2022-11-21T11:25:44;3.03;;;1.13;;
11000;SDS011;5553;48.506;8.870;2022-11-21T11:28:13;1.77;;;0.70;;
11000;SDS011;5553;48.506;8.870;2022-11-21T11:30:43;4.20;;;1.43;;
11000;SDS011;5553;48.506;8.870;2022-11-21T11:36:03;2.37;;;0.90;;
11000;SDS011;5553;48.506;8.870;2022-11-21T11:38:44;4.40;;;1.87;;
11000;SDS011;5553;48.506;8.870;2022-11-21T11:41:24;2.97;;;0.90;;
11000;SDS011;5553;48.506;8.870;2022-11-21T11:44:30;4.30;;;1.70;;
11000;SDS011;5553;48.506;8.870;2022-11-21T11:47:16;7.17;;;1.40;;
11000;SDS011;5553;48.506;8.870;2022-11-21T11:49:59;1.80;;;1.17;;
11000;SDS011;5553;48.506;8.870;2022-11-21T11:52:48;3.23;;;1.70;;
11000;SDS011;5553;48.506;8.870;2022-11-21T11:55:25;2.53;;;1.10;;
11000;SDS011;5553;48.506;8.870;2022-11-21T11:57:59;4.43;;;1.37;;
11000;SDS011;5553;48.506;8.870;2022-11-21T12:00:32;4.67;;;1.33;;
11000;SDS011;5553;48.506;8.870;2022-11-21T12:03:10;2.03;;;1.10;;
11000;SDS011;5553;48.506;8.870;2022-11-21T12:05:48;3.63;;;1.50;;
11000;SDS011;5553;48.506;8.870;2022-11-21T12:08:24;2.10;;;1.00;;
11000;SDS011;5553;48.506;8.870;2022-11-21T12:11:02;3.23;;;1.40;;
11000;SDS011;5553;48.506;8.870;2022-11-21T12:13:51;2.60;;;1.23;;
11000;SDS011;5553;48.506;8.870;2022-11-21T12:16:22;1.33;;;0.90;;
11000;SDS011;5553;48.506;8.870;2022-11-21T12:18:54;2.80;;;0.70;;
11000;SDS011;5553;48.506;8.870;2022-11-21T12:21:26;4.40;;;1.10;;
11000;SDS011;5553;48.506;8.870;2022-11-21T12:23:56;3.13;;;0.83;;
11000;SDS011;5553;48.506;8.870;2022-11-21T12:26:36;4.47;;;1.10;;
11000;SDS011;5553;48.506;8.870;2022-11-21T12:29:20;3.60;;;1.07;;
11000;SDS011;5553;48.506;8.870;2022-11-21T12:32:03;5.23;;;1.00;;
11000;SDS011;5553;48.506;8.870;2022-11-21T12:34:48;5.47;;;1.30;;
11000;SDS011;5553;48.506;8.870;2022-11-21T12:37:47;3.30;;;1.07;;
11000;SDS011;5553;48.506;8.870;2022-11-21T12:40:32;4.97;;;1.80;;
11000;SDS011;5553;48.506;8.870;2022-11-21T12:43:16;1.73;;;1.13;;
11000;SDS011;5553;48.506;8.870;2022-11-21T12:45:49;3.70;;;1.00;;
11000;SDS011;5553;48.506;8.870;2022-11-21T12:48:36;3.00;;;1.30;;
11000;SDS011;5553;48.506;8.870;2022-11-21T12:51:39;6.00;;;1.50;;
11000;SDS011;5553;48.506;8.870;2022-11-21T12:54:50;5.67;;;1.37;;
11000;SDS011;5553;48.506;8.870;2022-11-21T12:57:32;1.57;;;1.00;;
11000;SDS011;5553;48.506;8.870;2022-11-21T13:00:11;3.73;;;1.13;;
11000;SDS011;5553;48.506;8.870;2022-11-21T13:02:49;2.67;;;1.37;;
11000;SDS011;5553;48.506;8.870;2022-11-21T13:05:38;1.13;;;0.70;;
11000;SDS011;5553;48.506;8.870;2022-11-21T13:08:09;2.33;;;1.00;;
11000;SDS011;5553;48.506;8.870;2022-11-21T13:10:40;5.30;;;1.23;;
11000;SDS011;5553;48.506;8.870;2022-11-21T13:13:18;4.50;;;1.07;;
11000;SDS011;5553;48.506;8.870;2022-11-21T13:15:56;3.40;;;1.07;;
11000;SDS011;5553;48.506;8.870;2022-11-21T13:18:34;5.13;;;1.23;;
11000;SDS011;5553;48.506;8.870;2022-11-21T13:24:07;4.03;;;1.67;;
11000;SDS011;5553;48.506;8.870;2022-11-21T13:26:46;4.33;;;1.10;;
11000;SDS011;5553;48.506;8.870;2022-11-21T13:29:20;4.63;;;1.20;;
11000;SDS011;5553;48.506;8.870;2022-11-21T13:31:51;3.17;;;1.07;;
11000;SDS011;5553;48.506;8.870;2022-11-21T13:37:04;8.00;;;1.10;;
11000;SDS011;5553;48.506;8.870;2022-11-21T13:39:34;4.27;;;0.97;;
11000;SDS011;5553;48.506;8.870;2022-11-21T13:42:10;3.67;;;1.10;;
11000;SDS011;5553;48.506;8.870;2022-11-21T13:44:52;4.00;;;0.90;;
11000;SDS011;5553;48.506;8.870;2022-11-21T13:50:22;2.07;;;1.10;;
11000;SDS011;5553;48.506;8.870;2022-11-21T13:53:06;5.87;;;2.13;;
11000;SDS011;5553;48.506;8.870;2022-11-21T13:55:54;3.23;;;1.00;;
11000;SDS011;5553;48.506;8.870;2022-11-21T13:58:27;4.40;;;1.10;;
11000;SDS011;5553;48.506;8.870;2022-11-21T14:01:21;4.20;;;1.00;;
11000;SDS011;5553;48.506;8.870;2022-11-21T14:09:58;4.63;;;1.73;;
11000;SDS011;5553;48.506;8.870;2022-11-21T14:12:28;4.97;;;1.10;;
11000;SDS011;5553;48.506;8.870;2022-11-21T14:15:12;3.90;;;0.90;;
11000;SDS011;5553;48.506;8.870;2022-11-21T14:17:46;1.63;;;0.80;;
11000;SDS011;5553;48.506;8.870;2022-11-21T14:20:20;3.57;;;0.80;;
11000;SDS011;5553;48.506;8.870;2022-11-21T14:22:54;3.13;;;1.00;;
11000;SDS011;5553;48.506;8.870;2022-11-21T14:25:27;2.97;;;1.10;;
11000;SDS011;5553;48.506;8.870;2022-11-21T14:28:02;1.57;;;0.90;;
11000;SDS011;5553;48.506;8.870;2022-11-21T14:30:34;1.73;;;1.17;;
11000;SDS011;5553;48.506;8.870;2022-11-21T14:36:06;3.87;;;1.60;;
11000;SDS011;5553;48.506;8.870;2022-11-21T14:38:39;4.73;;;0.83;;
11000;SDS011;5553;48.506;8.870;2022-11-21T14:44:01;3.20;;;1.53;;
11000;SDS011;5553;48.506;8.870;2022-11-21T14:46:32;8.47;;;2.13;;
11000;SDS011;5553;48.506;8.870;2022-11-21T14:52:07;9.77;;;3.80;;
11000;SDS011;5553;48.506;8.870;2022-11-21T14:54:46;9.07;;;4.10;;
11000;SDS011;5553;48.506;8.870;2022-11-21T14:57:18;8.20;;;4.67;;
11000;SDS011;5553;48.506;8.870;2022-11-21T14:59:50;5.53;;;3.20;;
11000;SDS011;5553;48.506;8.870;2022-11-21T15:02:21;7.47;;;2.17;;
11000;SDS011;5553;48.506;8.870;2022-11-21T15:04:52;2.90;;;2.00;;
11000;SDS011;5553;48.506;8.870;2022-11-21T15:07:25;7.93;;;2.70;;
11000;SDS011;5553;48.506;8.870;2022-11-21T15:10:01;14.40;;;2.00;;
11000;SDS011;5553;48.506;8.870;2022-11-21T15:12:31;3.20;;;1.80;;
11000;SDS011;5553;48.506;8.870;2022-11-21T15:15:05;6.97;;;3.50;;
11000;SDS011;5553;48.506;8.870;2022-11-21T15:17:45;11.93;;;4.87;;
11000;SDS011;5553;48.506;8.870;2022-11-21T15:20:16;11.60;;;6.57;;
11000;SDS011;5553;48.506;8.870;2022-11-21T15:22:49;13.43;;;7.30;;
11000;SDS011;5553;48.506;8.870;2022-11-21T15:25:22;13.13;;;7.80;;
11000;SDS011;5553;48.506;8.870;2022-11-21T15:28:05;12.30;;;6.57;;
11000;SDS011;5553;48.506;8.870;2022-11-21T15:30:36;13.90;;;5.33;;
11000;SDS011;5553;48.506;8.870;2022-11-21T15:33:08;11.40;;;5.70;;
11000;SDS011;5553;48.506;8.870;2022-11-21T15:35:46;6.60;;;4.60;;
11000;SDS011;5553;48.506;8.870;2022-11-21T15:38:23;10.97;;;5.20;;
11000;SDS011;5553;48.506;8.870;2022-11-21T15:41:00;13.33;;;5.50;;
11000;SDS011;5553;48.506;8.870;2022-11-21T15:43:34;14.47;;;7.33;;
11000;SDS011;5553;48.506;8.870;2022-11-21T15:46:10;20.27;;;10.00;;
11000;SDS011;5553;48.506;8.870;2022-11-21T15:48:43;15.60;;;9.73;;
11000;SDS011;5553;48.506;8.870;2022-11-21T15:51:12;9.90;;;4.17;;
11000;SDS011;5553;48.506;8.870;2022-11-21T15:53:43;8.10;;;2.97;;
11000;SDS011;5553;48.506;8.870;2022-11-21T15:56:12;12.97;;;7.37;;
11000;SDS011;5553;48.506;8.870;2022-11-21T15:58:42;25.23;;;15.00;;
11000;SDS011;5553;48.506;8.870;2022-11-21T16:01:11;10.50;;;7.50;;
11000;SDS011;5553;48.506;8.870;2022-11-21T16:03:41;8.93;;;4.40;;
11000;SDS011;5553;48.506;8.870;2022-11-21T16:06:10;43.33;;;23.87;;
11000;SDS011;5553;48.506;8.870;2022-11-21T16:08:39;55.57;;;33.37;;
11000;SDS011;5553;48.506;8.870;2022-11-21T16:11:12;25.90;;;16.10;;
11000;SDS011;5553;48.506;8.870;2022-11-21T16:13:47;10.73;;;6.27;;
11000;SDS011;5553;48.506;8.870;2022-11-21T16:16:17;6.90;;;3.87;;
11000;SDS011;5553;48.506;8.870;2022-11-21T16:18:46;8.40;;;2.50;;
11000;SDS011;5553;48.506;8.870;2022-11-21T16:21:14;6.50;;;2.30;;
11000;SDS011;5553;48.506;8.870;2022-11-21T16:23:45;4.67;;;2.33;;
11000;SDS011;5553;48.506;8.870;2022-11-21T16:26:16;3.83;;;2.70;;
11000;SDS011;5553;48.506;8.870;2022-11-21T16:28:46;2.60;;;2.00;;
11000;SDS011;5553;48.506;8.870;2022-11-21T16:31:18;8.70;;;4.83;;
11000;SDS011;5553;48.506;8.870;2022-11-21T16:33:47;4.43;;;2.33;;
11000;SDS011;5553;48.506;8.870;2022-11-21T16:36:18;6.90;;;3.33;;
11000;SDS011;5553;48.506;8.870;2022-11-21T16:38:47;2.43;;;2.23;;
11000;SDS011;5553;48.506;8.870;2022-11-21T16:41:19;4.67;;;2.63;;
11000;SDS011;5553;48.506;8.870;2022-11-21T16:43:49;5.13;;;2.73;;
11000;SDS011;5553;48.506;8.870;2022-11-21T16:46:19;5.60;;;2.20;;
11000;SDS011;5553;48.506;8.870;2022-11-21T16:48:49;8.83;;;3.10;;
11000;SDS011;5553;48.506;8.870;2022-11-21T16:51:25;4.60;;;2.97;;
11000;SDS011;5553;48.506;8.870;2022-11-21T16:53:57;176.43;;;69.97;;
11000;SDS011;5553;48.506;8.870;2022-11-21T16:56:28;10.73;;;5.90;;
11000;SDS011;5553;48.506;8.870;2022-11-21T16:58:56;6.57;;;3.53;;
11000;SDS011;5553;48.506;8.870;2022-11-21T17:01:27;12.93;;;3.30;;
11000;SDS011;5553;48.506;8.870;2022-11-21T17:03:56;11.03;;;3.93;;
11000;SDS011;5553;48.506;8.870;2022-11-21T17:06:26;10.53;;;5.10;;
11000;SDS011;5553;48.506;8.870;2022-11-21T17:08:57;29.87;;;13.60;;
11000;SDS011;5553;48.506;8.870;2022-11-21T17:11:29;19.90;;;12.00;;
11000;SDS011;5553;48.506;8.870;2022-11-21T17:13:59;28.10;;;13.63;;
11000;SDS011;5553;48.506;8.870;2022-11-21T17:16:28;20.20;;;11.87;;
11000;SDS011;5553;48.506;8.870;2022-11-21T17:18:59;17.37;;;10.23;;
11000;SDS011;5553;48.506;8.870;2022-11-21T17:21:28;11.43;;;9.43;;
11000;SDS011;5553;48.506;8.870;2022-11-21T17:23:58;12.17;;;8.90;;
11000;SDS011;5553;48.506;8.870;2022-11-21T17:26:27;14.80;;;8.50;;
11000;SDS011;5553;48.506;8.870;2022-11-21T17:28:58;9.93;;;7.80;;
11000;SDS011;5553;48.506;8.870;2022-11-21T17:31:28;23.30;;;13.43;;
11000;SDS011;5553;48.506;8.870;2022-11-21T17:33:58;23.80;;;13.73;;
11000;SDS011;5553;48.506;8.870;2022-11-21T17:36:27;43.00;;;21.70;;
11000;SDS011;5553;48.506;8.870;2022-11-21T17:38:58;39.80;;;20.47;;
11000;SDS011;5553;48.506;8.870;2022-11-21T17:41:29;37.60;;;20.90;;
11000;SDS011;5553;48.506;8.870;2022-11-21T17:43:58;37.27;;;21.20;;
11000;SDS011;5553;48.506;8.870;2022-11-21T17:46:26;47.33;;;26.50;;
11000;SDS011;5553;48.506;8.870;2022-11-21T17:48:55;64.83;;;33.47;;
11000;SDS011;5553;48.506;8.870;2022-11-21T17:51:25;51.77;;;29.40;;
11000;SDS011;5553;48.506;8.870;2022-11-21T17:53:54;41.50;;;21.57;;
11000;SDS011;5553;48.506;8.870;2022-11-21T17:56:23;54.20;;;28.60;;
11000;SDS011;5553;48.506;8.870;2022-11-21T18:00:12;40.97;;;23.07;;
11000;SDS011;5553;48.506;8.870;2022-11-21T18:02:41;32.13;;;18.70;;
11000;SDS011;5553;48.506;8.870;2022-11-21T18:05:09;27.80;;;16.47;;
11000;SDS011;5553;48.506;8.870;2022-11-21T18:07:37;29.83;;;13.43;;
11000;SDS011;5553;48.506;8.870;2022-11-21T18:10:06;19.07;;;11.57;;
11000;SDS011;5553;48.506;8.870;2022-11-21T18:12:35;15.57;;;9.80;;
11000;SDS011;5553;48.506;8.870;2022-11-21T18:15:04;16.93;;;10.03;;
11000;SDS011;5553;48.506;8.870;2022-11-21T18:17:35;19.20;;;9.57;;
11000;SDS011;5553;48.506;8.870;2022-11-21T18:20:04;16.37;;;9.43;;
11000;SDS011;5553;48.506;8.870;2022-11-21T18:22:33;14.93;;;8.93;;
11000;SDS011;5553;48.506;8.870;2022-11-21T18:25:01;13.53;;;7.60;;
11000;SDS011;5553;48.506;8.870;2022-11-21T18:27:30;15.53;;;7.90;;
11000;SDS011;5553;48.506;8.870;2022-11-21T18:29:58;11.40;;;6.13;;
11000;SDS011;5553;48.506;8.870;2022-11-21T18:32:26;14.13;;;7.50;;
11000;SDS011;5553;48.506;8.870;2022-11-21T18:34:57;14.23;;;8.47;;
11000;SDS011;5553;48.506;8.870;2022-11-21T18:37:25;14.33;;;10.23;;
11000;SDS011;5553;48.506;8.870;2022-11-21T18:39:54;19.57;;;11.47;;
11000;SDS011;5553;48.506;8.870;2022-11-21T18:42:22;17.77;;;10.17;;
11000;SDS011;5553;48.506;8.870;2022-11-21T18:44:50;13.40;;;7.10;;
11000;SDS011;5553;48.506;8.870;2022-11-21T18:47:19;8.30;;;5.47;;
11000;SDS011;5553;48.506;8.870;2022-11-21T18:49:47;14.37;;;5.60;;
11000;SDS011;5553;48.506;8.870;2022-11-21T18:52:18;10.20;;;6.20;;
11000;SDS011;5553;48.506;8.870;2022-11-21T18:54:46;8.47;;;5.70;;
11000;SDS011;5553;48.506;8.870;2022-11-21T18:57:15;9.40;;;6.10;;
11000;SDS011;5553;48.506;8.870;2022-11-21T18:59:43;9.23;;;6.53;;
11000;SDS011;5553;48.506;8.870;2022-11-21T19:02:11;20.73;;;12.23;;
11000;SDS011;5553;48.506;8.870;2022-11-21T19:04:40;12.53;;;7.53;;
11000;SDS011;5553;48.506;8.870;2022-11-21T19:07:08;15.60;;;9.00;;
11000;SDS011;5553;48.506;8.870;2022-11-21T19:09:39;15.43;;;8.43;;
11000;SDS011;5553;48.506;8.870;2022-11-21T19:12:07;15.43;;;8.50;;
11000;SDS011;5553;48.506;8.870;2022-11-21T19:14:36;17.23;;;8.30;;
11000;SDS011;5553;48.506;8.870;2022-11-21T19:17:04;10.57;;;8.83;;
11000;SDS011;5553;48.506;8.870;2022-11-21T19:19:32;16.30;;;8.07;;
11000;SDS011;5553;48.506;8.870;2022-11-21T19:22:01;21.70;;;8.93;;
11000;SDS011;5553;48.506;8.870;2022-11-21T19:24:30;12.60;;;7.63;;
11000;SDS011;5553;48.506;8.870;2022-11-21T19:27:01;13.40;;;7.30;;
11000;SDS011;5553;48.506;8.870;2022-11-21T19:29:29;12.50;;;8.50;;
11000;SDS011;5553;48.506;8.870;2022-11-21T19:31:58;10.90;;;6.90;;
11000;SDS011;5553;48.506;8.870;2022-11-21T19:34:26;13.13;;;6.00;;
11000;SDS011;5553;48.506;8.870;2022-11-21T19:36:54;7.47;;;5.60;;
11000;SDS011;5553;48.506;8.870;2022-11-21T19:39:23;8.47;;;5.70;;
11000;SDS011;5553;48.506;8.870;2022-11-21T19:41:51;10.40;;;6.17;;
11000;SDS011;5553;48.506;8.870;2022-11-21T19:44:22;10.40;;;5.80;;
11000;SDS011;5553;48.506;8.870;2022-11-21T19:46:50;8.30;;;5.47;;
11000;SDS011;5553;48.506;8.870;2022-11-21T19:49:19;10.10;;;5.70;;
11000;SDS011;5553;48.506;8.870;2022-11-21T19:51:47;8.33;;;6.13;;
11000;SDS011;5553;48.506;8.870;2022-11-21T19:54:15;9.50;;;4.93;;
11000;SDS011;5553;48.506;8.870;2022-11-21T19:56:44;8.70;;;4.80;;
11000;SDS011;5553;48.506;8.870;2022-11-21T19:59:12;8.60;;;4.53;;
11000;SDS011;5553;48.506;8.870;2022-11-21T20:01:43;7.57;;;4.40;;